createdAt,value
2019-02-11T00:00:56.317Z,1.20
2019-02-11T00:03:13.128Z,2.40
2019-02-11T00:05:28.804Z,1.10
2019-02-11T00:07:49.232Z,2.30
2019-02-11T00:09:54.989Z,2.13
2019-02-11T00:12:00.498Z,2.93
2019-02-11T00:14:06.279Z,1.53
2019-02-11T00:16:11.588Z,0.97
2019-02-11T00:18:26.025Z,0.90
2019-02-11T00:20:34.611Z,1.07
2019-02-11T00:22:41.412Z,1.13
2019-02-11T00:25:03.650Z,5.27
2019-02-11T00:27:14.641Z,1.07
2019-02-11T00:29:17.316Z,2.50
2019-02-11T00:31:37.354Z,2.10
2019-02-11T00:33:43.825Z,1.30
2019-02-11T00:35:50.372Z,0.90
2019-02-11T00:37:56.801Z,4.47
2019-02-11T00:40:05.410Z,1.40
2019-02-11T00:42:11.450Z,2.87
2019-02-11T00:44:16.604Z,5.10
2019-02-11T00:46:27.033Z,4.40
2019-02-11T00:48:36.531Z,5.10
2019-02-11T00:50:42.628Z,0.90
2019-02-11T00:52:47.620Z,4.30
2019-02-11T00:54:55.959Z,5.93
2019-02-11T00:57:02.720Z,2.40
2019-02-11T00:59:08.221Z,5.90
2019-02-11T01:01:13.650Z,1.70
2019-02-11T01:03:18.866Z,4.13
2019-02-11T01:05:34.014Z,3.60
2019-02-11T01:07:41.716Z,5.00
2019-02-11T01:09:46.633Z,4.50
2019-02-11T01:11:58.858Z,2.87
2019-02-11T01:14:04.750Z,5.23
2019-02-11T01:16:09.760Z,2.60
2019-02-11T01:18:14.794Z,3.67
2019-02-11T01:20:19.830Z,1.20
2019-02-11T01:22:25.072Z,4.70
2019-02-11T01:24:30.062Z,3.80
2019-02-11T01:26:35.781Z,2.60
2019-02-11T01:28:40.743Z,5.80
2019-02-11T01:30:45.794Z,1.63
2019-02-11T01:32:50.790Z,8.37
2019-02-11T01:34:55.886Z,2.83
2019-02-11T01:37:02.639Z,1.87
2019-02-11T01:39:08.034Z,2.60
2019-02-11T01:41:13.652Z,5.17
2019-02-11T01:43:19.286Z,3.47
2019-02-11T01:45:24.861Z,3.53
2019-02-11T01:47:29.701Z,2.63
2019-02-11T01:49:34.860Z,8.10
2019-02-11T01:51:40.514Z,4.20
2019-02-11T01:53:45.684Z,4.33
2019-02-11T01:55:50.656Z,5.53
2019-02-11T01:57:58.593Z,5.47
2019-02-11T02:00:03.510Z,4.33
2019-02-11T02:02:08.365Z,14.10
2019-02-11T02:04:13.651Z,3.80
2019-02-11T02:06:18.481Z,4.50
2019-02-11T02:08:23.383Z,8.20
2019-02-11T02:10:28.699Z,8.23
2019-02-11T02:12:33.795Z,6.83
2019-02-11T02:14:38.959Z,7.37
2019-02-11T02:16:46.422Z,7.73
2019-02-11T02:18:52.098Z,5.47
2019-02-11T02:20:57.225Z,10.17
2019-02-11T02:23:02.083Z,8.17
2019-02-11T02:25:07.371Z,6.83
2019-02-11T02:27:12.691Z,11.07
2019-02-11T02:29:17.516Z,6.53
2019-02-11T02:31:22.327Z,8.03
2019-02-11T02:33:27.184Z,5.23
2019-02-11T02:35:32.061Z,9.70
2019-02-11T02:37:36.902Z,8.27
2019-02-11T02:39:41.836Z,5.90
2019-02-11T02:41:46.673Z,8.63
2019-02-11T02:43:55.804Z,6.10
2019-02-11T02:45:59.558Z,5.37
2019-02-11T02:48:04.423Z,8.43
2019-02-11T02:50:09.620Z,4.70
2019-02-11T02:52:14.467Z,2.97
2019-02-11T02:54:19.704Z,4.10
2019-02-11T02:56:24.522Z,6.70
2019-02-11T02:58:29.742Z,2.53
2019-02-11T03:00:34.855Z,5.40
2019-02-11T03:02:39.681Z,7.23
2019-02-11T03:04:44.465Z,16.80
2019-02-11T03:06:49.738Z,5.70
2019-02-11T03:08:54.651Z,5.80
2019-02-11T03:11:00.962Z,4.93
2019-02-11T03:13:05.852Z,3.70
2019-02-11T03:15:10.951Z,7.17
2019-02-11T03:17:15.791Z,9.47
2019-02-11T03:19:20.675Z,12.10
2019-02-11T03:21:25.537Z,7.57
2019-02-11T03:23:30.432Z,11.93
2019-02-11T03:25:36.749Z,15.80
2019-02-11T03:27:42.058Z,21.10
2019-02-11T03:29:47.766Z,12.97
2019-02-11T03:31:52.956Z,18.10
2019-02-11T03:33:58.275Z,19.37
2019-02-11T03:36:03.155Z,17.00
2019-02-11T03:38:08.275Z,15.30
2019-02-11T03:40:13.166Z,10.40
2019-02-11T03:42:18.340Z,20.20
2019-02-11T03:44:23.434Z,11.50
2019-02-11T03:46:28.247Z,12.70
2019-02-11T03:48:33.040Z,13.27
2019-02-11T03:50:37.821Z,20.17
2019-02-11T03:52:42.619Z,28.93
2019-02-11T03:54:48.204Z,16.90
2019-02-11T03:56:53.043Z,13.77
2019-02-11T03:58:57.836Z,8.50
2019-02-11T04:01:02.741Z,10.63
2019-02-11T04:03:07.651Z,14.40
2019-02-11T04:05:12.819Z,16.50
2019-02-11T04:07:17.684Z,15.53
2019-02-11T04:09:22.527Z,15.20
2019-02-11T04:11:27.828Z,9.20
2019-02-11T04:13:32.599Z,18.13
2019-02-11T04:15:37.754Z,12.83
2019-02-11T04:17:42.596Z,26.23
2019-02-11T04:19:47.377Z,13.60
2019-02-11T04:22:08.450Z,24.87
2019-02-11T04:24:13.321Z,16.00
2019-02-11T04:26:18.056Z,8.60
2019-02-11T04:28:23.183Z,13.40
2019-02-11T04:30:28.405Z,16.40
2019-02-11T04:32:33.151Z,23.10
2019-02-11T04:34:37.976Z,14.90
2019-02-11T04:36:44.622Z,12.80
2019-02-11T04:38:49.358Z,12.30
2019-02-11T04:40:54.970Z,20.40
2019-02-11T04:42:59.975Z,20.87
2019-02-11T04:45:04.980Z,18.30
2019-02-11T04:47:09.821Z,12.90
2019-02-11T04:49:15.745Z,27.17
2019-02-11T04:51:20.698Z,20.17
2019-02-11T04:53:26.227Z,19.40
2019-02-11T04:55:31.383Z,19.43
2019-02-11T04:57:36.622Z,17.40
2019-02-11T04:59:41.459Z,13.63
2019-02-11T05:01:48.541Z,12.90
2019-02-11T05:03:54.042Z,25.90
2019-02-11T05:06:00.260Z,14.60
2019-02-11T05:08:05.583Z,13.00
2019-02-11T05:10:11.696Z,17.93
2019-02-11T05:12:16.794Z,11.43
2019-02-11T05:14:21.710Z,16.50
2019-02-11T05:16:27.164Z,17.73
2019-02-11T05:18:32.272Z,16.00
2019-02-11T05:20:37.001Z,23.73
2019-02-11T05:22:42.110Z,27.10
2019-02-11T05:24:46.889Z,19.10
2019-02-11T05:26:52.309Z,22.90
2019-02-11T05:28:58.217Z,16.03
2019-02-11T05:31:04.991Z,17.33
2019-02-11T05:33:14.625Z,12.40
2019-02-11T05:35:19.579Z,20.43
2019-02-11T05:37:26.946Z,16.50
2019-02-11T05:39:32.081Z,20.90
2019-02-11T05:41:38.702Z,20.07
2019-02-11T05:43:43.776Z,23.93
2019-02-11T05:45:49.031Z,19.97
2019-02-11T05:47:53.968Z,17.13
2019-02-11T05:50:00.263Z,19.33
2019-02-11T05:52:05.019Z,16.13
2019-02-11T05:54:09.891Z,14.10
2019-02-11T05:56:15.239Z,14.70
2019-02-11T05:58:20.462Z,15.47
2019-02-11T06:00:25.752Z,15.10
2019-02-11T06:02:30.957Z,20.03
2019-02-11T06:04:35.944Z,16.10
2019-02-11T06:06:41.053Z,14.40
2019-02-11T06:08:45.997Z,15.07
2019-02-11T06:10:52.980Z,20.60
2019-02-11T06:12:58.273Z,25.80
2019-02-11T06:15:04.625Z,14.97
2019-02-11T06:17:10.130Z,24.30
2019-02-11T06:19:15.322Z,16.17
2019-02-11T06:21:20.107Z,24.33
2019-02-11T06:23:25.363Z,19.93
2019-02-11T06:25:30.647Z,14.63
2019-02-11T06:27:35.696Z,17.17
2019-02-11T06:29:41.348Z,16.03
2019-02-11T06:31:46.188Z,20.33
2019-02-11T06:33:51.072Z,16.60
2019-02-11T06:35:55.878Z,15.37
2019-02-11T06:38:01.097Z,25.77
2019-02-11T06:40:07.527Z,14.73
2019-02-11T06:42:12.286Z,19.57
2019-02-11T06:44:17.522Z,16.13
2019-02-11T06:46:22.515Z,10.50
2019-02-11T06:48:27.313Z,22.73
2019-02-11T06:50:32.654Z,12.97
2019-02-11T06:52:37.551Z,15.30
2019-02-11T06:54:42.359Z,21.40
2019-02-11T06:56:47.342Z,21.00
2019-02-11T06:58:52.540Z,9.40
2019-02-11T07:00:57.301Z,17.03
2019-02-11T07:03:02.256Z,17.60
2019-02-11T07:05:09.491Z,20.10
2019-02-11T07:07:14.313Z,20.87
2019-02-11T07:09:19.909Z,15.40
2019-02-11T07:11:25.526Z,13.27
2019-02-11T07:13:30.647Z,14.60
2019-02-11T07:15:36.187Z,17.67
2019-02-11T07:17:40.967Z,20.93
2019-02-11T07:19:45.990Z,13.60
2019-02-11T07:21:50.998Z,12.93
2019-02-11T07:23:56.166Z,10.37
2019-02-11T07:26:00.958Z,14.87
2019-02-11T07:28:05.820Z,22.70
2019-02-11T07:30:11.696Z,19.70
2019-02-11T07:32:17.171Z,18.60
2019-02-11T07:34:21.900Z,18.20
2019-02-11T07:36:26.719Z,21.73
2019-02-11T07:38:31.541Z,14.00
2019-02-11T07:40:36.855Z,25.57
2019-02-11T07:42:53.493Z,22.30
2019-02-11T07:45:00.823Z,19.87
2019-02-11T07:47:06.033Z,15.53
2019-02-11T07:49:11.056Z,13.23
2019-02-11T07:51:16.284Z,15.40
2019-02-11T07:53:21.484Z,20.80
2019-02-11T07:55:26.719Z,14.87
2019-02-11T07:57:32.361Z,12.63
2019-02-11T07:59:37.498Z,19.00
2019-02-11T08:01:42.434Z,15.57
2019-02-11T08:03:47.357Z,15.33
2019-02-11T08:05:52.253Z,14.20
2019-02-11T08:07:57.692Z,14.77
2019-02-11T08:10:03.648Z,18.33
2019-02-11T08:12:08.731Z,13.00
2019-02-11T08:14:14.124Z,12.37
2019-02-11T08:16:19.312Z,12.10
2019-02-11T08:18:24.251Z,13.43
2019-02-11T08:20:29.050Z,13.87
2019-02-11T08:22:34.015Z,17.70
2019-02-11T08:24:40.348Z,12.60
2019-02-11T08:26:45.925Z,16.70
2019-02-11T08:28:55.881Z,19.73
2019-02-11T08:31:41.529Z,14.50
2019-02-11T08:37:14.383Z,14.47
2019-02-11T08:39:26.313Z,15.80
2019-02-11T08:41:36.202Z,13.67
2019-02-11T08:51:08.292Z,11.63
2019-02-11T08:53:14.116Z,13.07
2019-02-11T08:55:19.514Z,14.40
2019-02-11T08:57:57.999Z,13.63
2019-02-11T09:00:03.511Z,16.07
2019-02-11T09:02:09.875Z,19.73
2019-02-11T09:04:25.963Z,16.00
2019-02-11T09:06:39.602Z,13.90
2019-02-11T09:08:44.941Z,14.83
2019-02-11T09:10:50.312Z,15.00
2019-02-11T09:13:09.054Z,12.30
2019-02-11T09:15:02.047Z,16.80
2019-02-11T09:17:10.280Z,13.80
2019-02-11T09:19:13.567Z,16.43
2019-02-11T09:21:18.650Z,15.70
2019-02-11T09:23:23.826Z,9.93
2019-02-11T09:25:29.894Z,19.73
2019-02-11T09:27:34.732Z,9.90
2019-02-11T09:29:39.608Z,13.60
2019-02-11T09:31:44.846Z,20.03
2019-02-11T09:33:49.809Z,15.83
2019-02-11T09:35:54.709Z,18.40
2019-02-11T09:37:59.490Z,14.43
2019-02-11T09:40:06.311Z,18.37
2019-02-11T09:42:11.193Z,14.13
2019-02-11T09:44:19.002Z,13.50
2019-02-11T09:46:23.868Z,15.40
2019-02-11T09:48:28.629Z,14.03
2019-02-11T09:50:48.064Z,17.17
2019-02-11T09:52:52.813Z,17.87
2019-02-11T09:54:57.629Z,15.47
2019-02-11T09:57:31.085Z,13.83
2019-02-11T09:59:40.067Z,12.20
2019-02-11T10:01:44.907Z,18.30
2019-02-11T10:03:54.191Z,12.23
2019-02-11T10:05:59.010Z,11.70
2019-02-11T10:08:03.893Z,23.97
2019-02-11T10:10:09.700Z,29.40
2019-02-11T10:12:21.213Z,27.97
2019-02-11T10:14:30.549Z,25.57
2019-02-11T10:16:35.734Z,12.43
2019-02-11T10:18:40.506Z,27.03
2019-02-11T10:20:45.509Z,17.20
2019-02-11T10:22:50.324Z,11.33
2019-02-11T10:24:55.064Z,14.67
2019-02-11T10:27:04.870Z,18.90
2019-02-11T10:29:09.706Z,15.63
2019-02-11T10:31:14.525Z,13.37
2019-02-11T10:33:19.394Z,15.17
2019-02-11T10:35:24.233Z,17.50
2019-02-11T10:37:30.668Z,11.60
2019-02-11T10:39:35.702Z,14.70
2019-02-11T10:41:44.584Z,18.73
2019-02-11T10:43:49.346Z,16.30
2019-02-11T10:45:55.073Z,11.33
2019-02-11T10:48:00.363Z,14.97
2019-02-11T10:50:05.487Z,12.90
2019-02-11T10:52:12.607Z,9.43
2019-02-11T10:54:17.788Z,13.97
2019-02-11T10:56:22.969Z,18.30
2019-02-11T10:58:28.905Z,17.60
2019-02-11T11:00:34.367Z,13.30
2019-02-11T11:02:40.270Z,9.47
2019-02-11T11:04:46.126Z,11.87
2019-02-11T11:06:51.469Z,12.03
2019-02-11T11:08:56.219Z,11.53
2019-02-11T11:11:01.793Z,9.93
2019-02-11T11:13:06.734Z,9.07
2019-02-11T11:15:12.077Z,17.07
2019-02-11T11:17:16.804Z,15.43
2019-02-11T11:19:21.988Z,10.20
2019-02-11T11:21:26.765Z,10.57
2019-02-11T11:23:31.541Z,12.53
2019-02-11T11:25:37.101Z,17.00
2019-02-11T11:27:42.272Z,10.93
2019-02-11T11:29:47.157Z,10.10
2019-02-11T11:31:52.801Z,10.63
2019-02-11T11:33:57.741Z,14.93
2019-02-11T11:36:02.448Z,12.30
2019-02-11T11:38:08.326Z,11.63
2019-02-11T11:40:15.318Z,14.10
2019-02-11T11:42:20.076Z,10.47
2019-02-11T11:44:24.802Z,14.53
2019-02-11T11:46:37.509Z,17.97
2019-02-11T11:48:36.353Z,14.53
2019-02-11T11:50:41.298Z,11.80
2019-02-11T11:52:46.616Z,13.60
2019-02-11T11:54:52.824Z,13.87
2019-02-11T11:56:59.447Z,11.83
2019-02-11T11:59:04.376Z,11.60
2019-02-11T12:01:09.504Z,11.00
2019-02-11T12:03:14.316Z,14.23
2019-02-11T12:05:19.494Z,14.37
2019-02-11T12:07:24.810Z,11.27
2019-02-11T12:09:29.618Z,14.23
2019-02-11T12:11:34.383Z,15.57
2019-02-11T12:13:39.377Z,11.30
2019-02-11T12:15:44.139Z,10.50
2019-02-11T12:17:49.139Z,8.50
2019-02-11T12:19:54.001Z,14.47
2019-02-11T12:21:58.736Z,23.33
2019-02-11T12:24:03.537Z,14.13
2019-02-11T12:26:08.278Z,17.63
2019-02-11T12:28:13.075Z,12.80
2019-02-11T12:30:22.861Z,14.13
2019-02-11T12:32:28.109Z,10.60
2019-02-11T12:34:32.878Z,10.73
2019-02-11T12:36:37.668Z,10.93
2019-02-11T12:38:42.394Z,12.30
2019-02-11T12:40:47.240Z,10.93
2019-02-11T12:42:53.396Z,9.63
2019-02-11T12:44:58.458Z,7.67
2019-02-11T12:47:14.328Z,6.20
2019-02-11T12:49:09.859Z,7.33
2019-02-11T12:51:34.007Z,8.87
2019-02-11T12:54:01.762Z,8.90
2019-02-11T12:56:06.817Z,12.50
2019-02-11T12:58:12.242Z,11.43
2019-02-11T13:00:22.297Z,11.20
2019-02-11T13:02:29.863Z,12.60
2019-02-11T13:04:37.223Z,12.53
2019-02-11T13:06:42.733Z,8.30
2019-02-11T13:08:48.996Z,10.30
2019-02-11T13:10:54.533Z,15.87
2019-02-11T13:13:00.451Z,14.40
2019-02-11T13:15:09.381Z,15.33
2019-02-11T13:17:33.451Z,9.30
2019-02-11T13:19:27.873Z,11.83
2019-02-11T13:21:52.364Z,15.80
2019-02-11T13:23:57.738Z,14.00
2019-02-11T13:26:02.709Z,9.07
2019-02-11T13:28:07.579Z,11.47
2019-02-11T13:30:16.233Z,8.10
2019-02-11T13:32:21.141Z,9.33
2019-02-11T13:34:26.068Z,11.20
2019-02-11T13:36:31.257Z,12.90
2019-02-11T13:38:36.165Z,8.73
2019-02-11T13:40:40.935Z,17.07
2019-02-11T13:42:46.101Z,18.00
2019-02-11T13:44:50.957Z,12.80
2019-02-11T13:46:56.335Z,17.00
2019-02-11T13:49:01.252Z,13.40
2019-02-11T13:51:06.538Z,12.90
2019-02-11T13:53:11.345Z,13.30
2019-02-11T13:55:16.324Z,14.73
2019-02-11T13:57:21.048Z,11.10
2019-02-11T13:59:26.326Z,12.93
2019-02-11T14:01:31.257Z,18.93
2019-02-11T14:03:36.143Z,15.40
2019-02-11T14:05:41.139Z,10.03
2019-02-11T14:07:45.809Z,19.03
2019-02-11T14:09:50.673Z,15.83
2019-02-11T14:11:55.550Z,16.87
2019-02-11T14:14:03.201Z,18.40
2019-02-11T14:16:08.263Z,22.83
2019-02-11T14:18:16.004Z,11.97
2019-02-11T14:20:23.961Z,14.37
2019-02-11T14:22:29.575Z,18.47
2019-02-11T14:24:34.630Z,17.27
2019-02-11T14:26:39.518Z,15.50
2019-02-11T14:28:49.388Z,20.87
2019-02-11T14:30:53.451Z,20.60
2019-02-11T14:32:58.365Z,17.20
2019-02-11T14:35:03.905Z,15.70
2019-02-11T14:37:09.072Z,13.80
2019-02-11T14:39:14.979Z,11.23
2019-02-11T14:41:19.751Z,15.73
2019-02-11T14:43:24.650Z,14.80
2019-02-11T14:45:30.175Z,14.90
2019-02-11T14:47:37.014Z,14.53
2019-02-11T14:49:41.910Z,16.07
2019-02-11T14:51:46.781Z,19.17
2019-02-11T14:53:51.548Z,20.40
2019-02-11T14:55:56.573Z,19.43
2019-02-11T14:58:12.672Z,18.30
2019-02-11T15:00:19.980Z,13.63
2019-02-11T15:02:25.220Z,19.43
2019-02-11T15:04:30.063Z,18.37
2019-02-11T15:06:35.261Z,12.33
2019-02-11T15:08:40.808Z,18.00
2019-02-11T15:10:45.984Z,14.40
2019-02-11T15:12:51.059Z,17.37
2019-02-11T15:14:55.779Z,14.53
2019-02-11T15:17:00.869Z,12.77
2019-02-11T15:19:05.816Z,19.53
2019-02-11T15:21:10.524Z,18.17
2019-02-11T15:23:15.483Z,17.00
2019-02-11T15:25:20.700Z,12.50
2019-02-11T15:27:26.269Z,16.90
2019-02-11T15:29:31.150Z,14.37
2019-02-11T15:31:36.270Z,17.17
2019-02-11T15:33:41.477Z,10.50
2019-02-11T15:35:46.751Z,17.80
2019-02-11T15:37:51.681Z,12.23
2019-02-11T15:39:56.676Z,14.90
2019-02-11T15:42:01.488Z,11.80
2019-02-11T15:44:06.321Z,11.10
2019-02-11T15:46:11.650Z,7.20
2019-02-11T15:48:16.942Z,6.97
2019-02-11T15:50:22.574Z,5.20
2019-02-11T15:52:27.926Z,14.63
2019-02-11T15:54:32.918Z,14.73
2019-02-11T15:56:37.732Z,16.37
2019-02-11T15:58:42.599Z,12.93
2019-02-11T16:00:47.736Z,15.37
2019-02-11T16:02:52.696Z,18.60
2019-02-11T16:05:02.289Z,7.23
2019-02-11T16:07:03.897Z,12.70
2019-02-11T16:09:08.781Z,11.00
2019-02-11T16:11:13.560Z,17.00
2019-02-11T16:13:18.423Z,10.30
2019-02-11T16:15:23.224Z,12.37
2019-02-11T16:17:47.024Z,16.93
2019-02-11T16:19:51.948Z,16.67
2019-02-11T16:21:57.189Z,11.33
2019-02-11T16:24:01.910Z,9.27
2019-02-11T16:26:07.031Z,12.90
2019-02-11T16:28:11.808Z,14.60
2019-02-11T16:30:17.791Z,7.80
2019-02-11T16:32:22.524Z,13.67
2019-02-11T16:34:27.283Z,20.70
2019-02-11T16:36:32.282Z,12.20
2019-02-11T16:38:37.159Z,15.63
2019-02-11T16:40:42.087Z,15.37
2019-02-11T16:42:47.285Z,11.63
2019-02-11T16:44:52.035Z,15.83
2019-02-11T16:46:57.015Z,14.97
2019-02-11T16:49:01.762Z,9.17
2019-02-11T16:51:07.281Z,10.00
2019-02-11T16:53:12.038Z,17.70
2019-02-11T16:55:17.134Z,11.23
2019-02-11T16:57:21.964Z,12.30
2019-02-11T16:59:26.710Z,7.40
2019-02-11T17:01:32.068Z,8.37
2019-02-11T17:03:36.839Z,11.20
2019-02-11T17:05:41.707Z,11.03
2019-02-11T17:07:46.648Z,8.20
2019-02-11T17:09:51.771Z,11.07
2019-02-11T17:11:57.473Z,8.37
2019-02-11T17:14:02.279Z,11.83
2019-02-11T17:16:07.291Z,10.13
2019-02-11T17:18:12.202Z,15.27
2019-02-11T17:20:17.385Z,14.70
2019-02-11T17:22:22.340Z,18.07
2019-02-11T17:24:27.526Z,18.33
2019-02-11T17:26:32.481Z,18.83
2019-02-11T17:28:37.356Z,14.10
2019-02-11T17:30:42.821Z,14.70
2019-02-11T17:32:48.083Z,24.00
2019-02-11T17:35:40.951Z,21.63
2019-02-11T17:37:46.175Z,17.97
2019-02-11T17:39:50.948Z,14.50
2019-02-11T17:41:56.697Z,11.23
2019-02-11T17:44:01.521Z,14.37
2019-02-11T17:46:07.243Z,18.03
2019-02-11T17:48:12.097Z,16.33
2019-02-11T17:50:17.356Z,16.10
2019-02-11T17:52:22.505Z,19.50
2019-02-11T17:54:27.887Z,11.03
2019-02-11T17:56:32.726Z,9.53
2019-02-11T17:58:37.853Z,18.23
2019-02-11T18:00:48.016Z,15.63
2019-02-11T18:02:52.869Z,18.40
2019-02-11T18:04:58.075Z,22.90
2019-02-11T18:07:02.973Z,14.83
2019-02-11T18:09:09.832Z,16.60
2019-02-11T18:11:14.865Z,15.33
2019-02-11T18:13:19.660Z,18.87
2019-02-11T18:15:24.562Z,17.77
2019-02-11T18:17:29.850Z,19.83
2019-02-11T18:19:34.874Z,13.63
2019-02-11T18:21:39.876Z,18.17
2019-02-11T18:23:50.152Z,16.63
2019-02-11T18:25:57.240Z,16.77
2019-02-11T18:28:02.668Z,22.73
2019-02-11T18:30:09.141Z,16.67
2019-02-11T18:32:13.929Z,13.20
2019-02-11T18:34:18.778Z,11.13
2019-02-11T18:36:23.911Z,16.57
2019-02-11T18:38:28.763Z,23.40
2019-02-11T18:40:33.976Z,14.40
2019-02-11T18:42:39.393Z,12.30
2019-02-11T18:44:44.620Z,14.77
2019-02-11T18:46:49.758Z,13.50
2019-02-11T18:48:54.522Z,18.20
2019-02-11T18:50:59.582Z,10.00
2019-02-11T18:53:04.360Z,11.90
2019-02-11T18:55:11.511Z,9.77
2019-02-11T18:57:17.396Z,7.60
2019-02-11T18:59:24.781Z,14.53
2019-02-11T19:01:28.789Z,11.57
2019-02-11T19:03:33.806Z,16.83
2019-02-11T19:05:41.016Z,24.00
2019-02-11T19:07:46.550Z,20.83
2019-02-11T19:09:51.820Z,23.73
2019-02-11T19:11:56.828Z,13.07
2019-02-11T19:14:02.103Z,13.23
2019-02-11T19:16:09.724Z,22.83
2019-02-11T19:18:14.891Z,18.90
2019-02-11T19:20:19.904Z,19.13
2019-02-11T19:22:30.434Z,23.83
2019-02-11T19:24:36.334Z,9.97
2019-02-11T19:26:41.260Z,11.67
2019-02-11T19:28:46.597Z,18.33
2019-02-11T19:30:51.619Z,17.63
2019-02-11T19:32:57.801Z,18.43
2019-02-11T19:35:02.697Z,17.03
2019-02-11T19:37:07.906Z,17.40
2019-02-11T19:39:16.200Z,18.13
2019-02-11T19:41:22.319Z,15.27
2019-02-11T19:43:34.368Z,19.10
2019-02-11T19:45:39.312Z,25.80
2019-02-11T19:47:44.476Z,21.13
2019-02-11T19:49:51.717Z,18.30
2019-02-11T19:51:57.507Z,35.47
2019-02-11T19:54:04.157Z,9.80
2019-02-11T19:56:10.181Z,11.30
2019-02-11T19:58:15.165Z,25.87
2019-02-11T20:00:21.352Z,19.20
2019-02-11T20:02:26.478Z,12.20
2019-02-11T20:04:32.114Z,12.30
2019-02-11T20:06:37.454Z,17.30
2019-02-11T20:08:42.420Z,11.57
2019-02-11T20:10:47.877Z,17.77
2019-02-11T20:12:52.993Z,16.43
2019-02-11T20:14:58.567Z,18.57
2019-02-11T20:17:03.522Z,19.10
2019-02-11T20:19:08.660Z,15.13
2019-02-11T20:21:13.569Z,17.70
2019-02-11T20:23:18.532Z,19.80
2019-02-11T20:25:23.585Z,23.33
2019-02-11T20:27:28.428Z,13.30
2019-02-11T20:29:33.346Z,17.60
2019-02-11T20:31:38.474Z,8.40
2019-02-11T20:33:43.423Z,19.07
2019-02-11T20:35:50.099Z,17.23
2019-02-11T20:37:56.357Z,21.43
2019-02-11T20:40:03.355Z,10.67
2019-02-11T20:42:08.935Z,17.00
2019-02-11T20:44:13.986Z,14.03
2019-02-11T20:46:18.790Z,16.70
2019-02-11T20:48:23.918Z,15.53
2019-02-11T20:50:29.519Z,20.00
2019-02-11T20:52:34.286Z,24.77
2019-02-11T20:54:39.122Z,22.13
2019-02-11T20:56:45.986Z,30.37
2019-02-11T20:58:50.830Z,18.00
2019-02-11T21:00:56.321Z,17.93
2019-02-11T21:03:08.367Z,13.87
2019-02-11T21:05:10.344Z,24.60
2019-02-11T21:07:15.311Z,15.60
2019-02-11T21:09:20.479Z,17.03
2019-02-11T21:11:26.034Z,21.70
2019-02-11T21:13:31.176Z,10.50
2019-02-11T21:15:36.343Z,15.40
2019-02-11T21:17:41.361Z,20.63
2019-02-11T21:19:46.512Z,12.80
2019-02-11T21:21:51.368Z,13.07
2019-02-11T21:23:56.903Z,14.53
2019-02-11T21:26:02.402Z,17.83
2019-02-11T21:28:07.148Z,15.70
2019-02-11T21:30:12.399Z,20.27
2019-02-11T21:32:18.859Z,17.47
2019-02-11T21:34:23.708Z,10.97
2019-02-11T21:36:29.208Z,25.50
2019-02-11T21:38:34.442Z,25.53
2019-02-11T21:40:39.690Z,17.47
2019-02-11T21:42:44.720Z,14.80
2019-02-11T21:44:49.953Z,33.63
2019-02-11T21:46:54.955Z,13.73
2019-02-11T21:49:01.812Z,22.97
2019-02-11T21:51:06.619Z,24.07
2019-02-11T21:53:11.774Z,16.87
2019-02-11T21:55:16.547Z,19.13
2019-02-11T21:57:21.433Z,16.30
2019-02-11T21:59:26.221Z,16.00
2019-02-11T22:01:31.147Z,19.70
2019-02-11T22:03:36.025Z,18.10
2019-02-11T22:05:41.184Z,12.53
2019-02-11T22:07:46.344Z,23.17
2019-02-11T22:09:51.263Z,25.07
2019-02-11T22:11:56.409Z,17.23
2019-02-11T22:14:01.277Z,25.20
2019-02-11T22:16:06.319Z,13.23
2019-02-11T22:18:11.458Z,23.30
2019-02-11T22:20:17.461Z,13.77
2019-02-11T22:22:22.296Z,17.50
2019-02-11T22:24:27.092Z,17.57
2019-02-11T22:26:32.069Z,12.30
2019-02-11T22:28:37.317Z,18.77
2019-02-11T22:30:42.312Z,22.60
2019-02-11T22:32:47.898Z,21.97
2019-02-11T22:34:53.223Z,24.13
2019-02-11T22:36:58.897Z,17.40
2019-02-11T22:39:04.707Z,16.57
2019-02-11T22:41:09.565Z,16.83
2019-02-11T22:43:15.211Z,23.13
2019-02-11T22:45:21.416Z,23.50
2019-02-11T22:47:26.196Z,18.70
2019-02-11T22:49:31.220Z,20.60
2019-02-11T22:51:36.759Z,22.13
2019-02-11T22:53:42.714Z,16.73
2019-02-11T22:55:47.710Z,21.63
2019-02-11T22:57:52.900Z,18.67
2019-02-11T22:59:58.888Z,21.40
2019-02-11T23:02:03.657Z,26.23
2019-02-11T23:04:08.512Z,21.93
2019-02-11T23:06:13.747Z,23.23
2019-02-11T23:08:18.507Z,17.43
2019-02-11T23:10:23.265Z,15.93
2019-02-11T23:12:28.178Z,28.37
2019-02-11T23:14:32.992Z,20.97
2019-02-11T23:16:38.730Z,34.10
2019-02-11T23:18:43.698Z,24.07
2019-02-11T23:20:51.978Z,16.80
2019-02-11T23:22:54.873Z,29.33
2019-02-11T23:25:00.006Z,24.17
2019-02-11T23:27:05.174Z,30.97
2019-02-11T23:29:09.920Z,21.50
2019-02-11T23:31:15.067Z,23.00
2019-02-11T23:33:19.858Z,21.70
2019-02-11T23:35:24.639Z,25.30
2019-02-11T23:37:29.427Z,19.10
2019-02-11T23:39:34.552Z,27.87
2019-02-11T23:41:39.804Z,17.00
2019-02-11T23:43:45.006Z,23.63
2019-02-11T23:45:50.090Z,20.67
2019-02-11T23:47:54.872Z,31.87
2019-02-11T23:49:59.648Z,24.17
2019-02-11T23:52:04.458Z,21.03
2019-02-11T23:54:09.286Z,15.80
2019-02-11T23:56:14.473Z,21.33
2019-02-11T23:58:19.198Z,26.73
